Time;durP1;ratioP1;P1;durP2;ratioP2;P2;SDS_P1;SDS_P2;PMS_P1;PMS_P2;Temp;Humidity;BMP_temperature;BMP_pressure;BME280_temperature;BME280_humidity;BME280_pressure;Samples;Min_cycle;Max_cycle;Signal;HPM_P1;HPM_P2
2021/11/22 00:01:00;;;;;;;2.35;0.85;;;4.40;99.90;;;;;;5052962;28;20033;-74
2021/11/22 00:03:27;;;;;;;3.28;0.93;;;4.40;99.90;;;;;;5053606;28;20071;-73
2021/11/22 00:05:53;;;;;;;4.75;1.50;;;4.40;99.90;;;;;;5053516;28;20060;-73
2021/11/22 00:08:19;;;;;;;7.75;2.00;;;4.40;99.90;;;;;;5052923;28;20778;-73
2021/11/22 00:10:45;;;;;;;6.43;1.65;;;4.40;99.90;;;;;;5053330;28;20069;-74
2021/11/22 00:13:11;;;;;;;8.38;1.42;;;4.30;99.90;;;;;;5053564;28;20082;-73
2021/11/22 00:15:36;;;;;;;7.35;1.23;;;4.30;99.90;;;;;;5052301;28;20032;-74
2021/11/22 00:18:02;;;;;;;7.47;0.98;;;4.30;99.90;;;;;;5052670;28;20031;-74
2021/11/22 00:20:28;;;;;;;8.35;1.35;;;4.20;99.90;;;;;;5053353;28;20028;-73
2021/11/22 00:22:54;;;;;;;4.88;1.55;;;4.20;99.90;;;;;;5052058;28;20020;-74
2021/11/22 00:25:20;;;;;;;3.20;1.27;;;4.20;99.90;;;;;;5053317;28;20025;-74
2021/11/22 00:27:47;;;;;;;7.18;1.15;;;4.20;99.90;;;;;;5052484;28;20025;-72
2021/11/22 00:30:14;;;;;;;1.75;1.20;;;4.20;99.90;;;;;;5051667;28;20074;-74
2021/11/22 00:32:42;;;;;;;3.88;1.30;;;4.10;99.90;;;;;;5054271;28;20473;-74
2021/11/22 00:35:08;;;;;;;6.07;1.05;;;4.10;99.90;;;;;;5052547;28;20036;-76
2021/11/22 00:37:37;;;;;;;7.63;1.20;;;4.10;99.90;;;;;;5051837;28;20029;-73
2021/11/22 00:40:04;;;;;;;1.77;0.88;;;4.10;99.90;;;;;;5052252;28;20021;-74
2021/11/22 00:42:30;;;;;;;10.20;1.70;;;4.00;99.90;;;;;;5053342;28;20040;-73
2021/11/22 00:44:56;;;;;;;4.07;1.17;;;4.10;99.90;;;;;;5052351;28;20458;-73
2021/11/22 00:47:22;;;;;;;9.70;1.35;;;4.10;99.90;;;;;;5052801;28;20029;-74
2021/11/22 00:49:48;;;;;;;7.13;1.40;;;4.10;99.90;;;;;;5051620;28;20413;-74
2021/11/22 00:52:14;;;;;;;4.40;1.05;;;4.10;99.90;;;;;;5051923;28;20132;-74
2021/11/22 00:54:40;;;;;;;5.18;1.15;;;4.10;99.90;;;;;;5052267;28;20052;-74
2021/11/22 00:57:06;;;;;;;5.65;1.10;;;4.20;99.90;;;;;;5051980;28;20060;-74
2021/11/22 00:59:32;;;;;;;6.68;1.20;;;4.10;99.90;;;;;;5054820;28;20033;-74
2021/11/22 01:01:58;;;;;;;4.25;0.90;;;4.00;99.90;;;;;;5053464;28;20021;-74
2021/11/22 01:04:24;;;;;;;6.38;1.27;;;4.10;99.90;;;;;;5051948;28;20176;-75
2021/11/22 01:06:50;;;;;;;2.55;0.75;;;4.10;99.90;;;;;;5053341;28;20029;-74
2021/11/22 01:09:15;;;;;;;5.28;1.10;;;4.10;99.90;;;;;;5052337;28;20016;-74
2021/11/22 01:11:41;;;;;;;2.58;0.90;;;4.10;99.90;;;;;;5051705;28;20041;-73
2021/11/22 01:14:08;;;;;;;4.57;0.80;;;4.00;99.90;;;;;;5051905;28;20017;-73
2021/11/22 01:16:34;;;;;;;7.88;1.08;;;4.10;99.90;;;;;;5052736;28;20033;-73
2021/11/22 01:19:00;;;;;;;2.33;0.70;;;4.10;99.90;;;;;;5050995;28;20104;-73
2021/11/22 01:21:26;;;;;;;1.75;0.50;;;4.00;99.90;;;;;;5046655;28;20029;-72
2021/11/22 01:23:53;;;;;;;4.35;0.73;;;4.00;99.90;;;;;;5050188;28;20108;-74
2021/11/22 01:26:19;;;;;;;4.43;0.70;;;4.00;99.90;;;;;;5051339;28;20021;-74
2021/11/22 01:28:45;;;;;;;6.80;1.05;;;4.00;99.90;;;;;;5052380;28;20024;-74
2021/11/22 01:31:11;;;;;;;4.20;0.90;;;4.00;99.90;;;;;;5051690;28;20025;-74
2021/11/22 01:33:36;;;;;;;3.55;0.80;;;4.00;99.90;;;;;;5051047;28;20029;-74
2021/11/22 01:36:02;;;;;;;2.03;1.20;;;4.00;99.90;;;;;;5051950;28;20112;-73
2021/11/22 01:38:28;;;;;;;4.55;0.82;;;4.00;99.90;;;;;;5052382;28;20484;-73
2021/11/22 01:40:54;;;;;;;7.47;0.90;;;4.00;99.90;;;;;;5051079;28;20112;-74
2021/11/22 01:43:20;;;;;;;2.67;0.80;;;4.10;99.90;;;;;;5052350;28;20032;-73
2021/11/22 01:45:48;;;;;;;1.70;0.70;;;4.00;99.90;;;;;;5052266;28;20175;-73
2021/11/22 01:48:15;;;;;;;6.03;1.05;;;4.10;99.90;;;;;;5051093;28;20056;-74
2021/11/22 01:50:42;;;;;;;8.93;1.00;;;4.00;99.90;;;;;;5051557;28;20116;-74
2021/11/22 01:53:08;;;;;;;8.40;0.95;;;4.00;99.90;;;;;;5050793;28;20070;-75
2021/11/22 01:55:34;;;;;;;2.65;0.80;;;3.90;99.90;;;;;;5051958;28;20025;-73
2021/11/22 01:58:01;;;;;;;3.45;0.90;;;3.90;99.90;;;;;;5053054;28;20028;-73
2021/11/22 02:00:31;;;;;;;2.38;0.90;;;3.90;99.90;;;;;;5055402;28;20059;-74
2021/11/22 02:02:59;;;;;;;9.68;1.95;;;3.80;99.90;;;;;;5055334;28;20469;-74
2021/11/22 02:05:24;;;;;;;5.55;1.00;;;3.80;99.90;;;;;;5060117;28;20049;-74
2021/11/22 02:07:51;;;;;;;1.38;0.60;;;3.80;99.90;;;;;;5055657;28;20798;-74
2021/11/22 02:10:17;;;;;;;3.15;0.70;;;3.80;99.90;;;;;;5055476;28;20384;-73
2021/11/22 02:12:43;;;;;;;3.78;1.08;;;3.80;99.90;;;;;;5055079;28;20037;-74
2021/11/22 02:15:12;;;;;;;3.10;0.80;;;3.80;99.90;;;;;;5054728;28;20202;-74
2021/11/22 02:17:39;;;;;;;1.58;0.70;;;3.70;99.90;;;;;;5055642;28;20036;-74
2021/11/22 02:20:09;;;;;;;4.43;0.98;;;3.70;99.90;;;;;;5054990;28;20104;-74
2021/11/22 02:22:35;;;;;;;2.40;1.00;;;3.60;99.90;;;;;;5054617;28;20166;-75
2021/11/22 02:25:05;;;;;;;5.18;1.02;;;3.60;99.90;;;;;;5055080;28;20104;-73
2021/11/22 02:27:32;;;;;;;4.38;1.85;;;3.60;99.90;;;;;;5055728;28;20114;-73
2021/11/22 02:29:57;;;;;;;3.45;0.80;;;3.50;99.90;;;;;;5054527;28;20036;-74
2021/11/22 02:32:23;;;;;;;6.82;0.80;;;3.50;99.90;;;;;;5055402;28;20393;-75
2021/11/22 02:34:48;;;;;;;2.15;0.70;;;3.40;99.90;;;;;;5055446;28;20107;-73
2021/11/22 02:37:14;;;;;;;2.25;0.98;;;3.40;99.90;;;;;;5054190;28;20024;-74
2021/11/22 02:39:40;;;;;;;5.93;1.33;;;3.40;99.90;;;;;;5055539;28;20036;-73
2021/11/22 02:42:12;;;;;;;4.10;1.05;;;3.30;99.90;;;;;;5054437;28;20090;-73
2021/11/22 02:44:38;;;;;;;3.58;1.23;;;3.20;99.90;;;;;;5055229;28;20025;-74
2021/11/22 02:47:04;;;;;;;6.13;1.00;;;3.30;99.90;;;;;;5054878;28;20107;-73
2021/11/22 02:49:29;;;;;;;2.30;0.80;;;3.30;99.90;;;;;;5054561;28;20021;-73
2021/11/22 02:51:55;;;;;;;4.75;1.25;;;3.40;99.90;;;;;;5054167;28;20545;-73
2021/11/22 02:54:21;;;;;;;6.65;1.20;;;3.40;99.90;;;;;;5054447;28;20025;-74
2021/11/22 02:56:46;;;;;;;6.72;0.90;;;3.50;99.90;;;;;;5053861;28;20025;-74
2021/11/22 02:59:12;;;;;;;6.65;1.00;;;3.50;99.90;;;;;;5054040;28;20115;-73
2021/11/22 03:01:38;;;;;;;5.63;1.20;;;3.50;99.90;;;;;;5054280;28;20112;-74
2021/11/22 03:04:04;;;;;;;4.40;0.80;;;3.50;99.90;;;;;;5053075;28;20438;-74
2021/11/22 03:06:29;;;;;;;2.50;0.98;;;3.50;99.90;;;;;;5054064;28;20060;-74
2021/11/22 03:08:55;;;;;;;8.85;2.17;;;3.40;99.90;;;;;;5052519;28;20025;-74
2021/11/22 03:11:21;;;;;;;5.07;1.00;;;3.40;99.90;;;;;;5053385;28;20037;-74
2021/11/22 03:13:48;;;;;;;2.42;1.00;;;3.40;99.90;;;;;;5054342;28;20466;-73
2021/11/22 03:16:15;;;;;;;3.47;0.73;;;3.40;99.90;;;;;;5053804;28;20036;-74
2021/11/22 03:18:41;;;;;;;8.20;1.17;;;3.50;99.90;;;;;;5053498;28;20104;-74
2021/11/22 03:21:07;;;;;;;8.13;2.22;;;3.50;99.90;;;;;;5054129;28;20103;-73
2021/11/22 03:23:33;;;;;;;5.70;0.95;;;3.50;99.90;;;;;;5054029;28;20029;-73
2021/11/22 03:25:59;;;;;;;6.22;0.95;;;3.40;99.90;;;;;;5053010;28;20036;-74
2021/11/22 03:28:27;;;;;;;5.65;1.10;;;3.30;99.90;;;;;;5054026;28;20017;-74
2021/11/22 03:30:53;;;;;;;3.08;1.05;;;3.30;99.90;;;;;;5054519;28;20044;-74
2021/11/22 03:33:20;;;;;;;4.85;0.75;;;3.30;99.90;;;;;;5053248;28;20059;-73
2021/11/22 03:35:48;;;;;;;1.98;0.80;;;3.30;99.90;;;;;;5054558;28;20029;-74
2021/11/22 03:38:15;;;;;;;3.85;1.00;;;3.40;99.90;;;;;;5055641;28;20027;-74
2021/11/22 03:40:43;;;;;;;7.78;1.10;;;3.30;99.90;;;;;;5043982;28;20031;-73
2021/11/22 03:45:37;;;;;;;7.95;1.05;;;3.30;99.90;;;;;;5052635;28;20025;-74
2021/11/22 03:48:04;;;;;;;4.28;0.73;;;3.30;99.90;;;;;;5053705;28;20540;-73
2021/11/22 03:50:30;;;;;;;4.97;0.77;;;3.30;99.90;;;;;;5053071;28;20477;-74
2021/11/22 03:52:55;;;;;;;2.15;1.05;;;3.20;99.90;;;;;;5052651;28;20039;-73
2021/11/22 03:55:21;;;;;;;7.97;1.02;;;3.20;99.90;;;;;;5053493;28;20020;-73
2021/11/22 03:57:47;;;;;;;7.25;1.00;;;3.10;99.90;;;;;;5053429;28;20029;-72
2021/11/22 04:00:14;;;;;;;2.50;0.90;;;3.10;99.90;;;;;;5052353;28;20380;-75
2021/11/22 04:02:40;;;;;;;4.28;1.02;;;3.10;99.90;;;;;;5052960;28;20187;-74
2021/11/22 04:05:06;;;;;;;7.80;1.13;;;3.00;99.90;;;;;;5052887;28;20512;-74
2021/11/22 04:07:32;;;;;;;6.10;0.80;;;3.00;99.90;;;;;;5053048;28;20025;-74
2021/11/22 04:09:58;;;;;;;5.10;0.90;;;3.00;99.90;;;;;;5052849;28;20203;-74
2021/11/22 04:12:24;;;;;;;4.43;1.50;;;3.00;99.90;;;;;;5052686;28;20033;-73
2021/11/22 04:14:50;;;;;;;4.13;0.80;;;2.90;99.90;;;;;;5052273;28;20027;-74
2021/11/22 04:17:16;;;;;;;2.42;0.75;;;2.90;99.90;;;;;;5052749;28;20025;-74
2021/11/22 04:19:41;;;;;;;6.05;0.90;;;2.90;99.90;;;;;;5053209;28;20021;-74
2021/11/22 04:22:07;;;;;;;8.65;0.85;;;2.90;99.90;;;;;;5051639;28;20044;-74
2021/11/22 04:24:33;;;;;;;8.38;1.02;;;2.90;99.90;;;;;;5052812;28;20096;-73
2021/11/22 04:26:59;;;;;;;6.20;1.15;;;2.90;99.90;;;;;;5052294;28;20530;-72
2021/11/22 04:29:25;;;;;;;2.85;0.80;;;3.00;99.90;;;;;;5051947;28;20033;-74
2021/11/22 04:31:50;;;;;;;6.30;0.98;;;3.00;99.90;;;;;;5052774;28;20088;-74
2021/11/22 04:34:16;;;;;;;5.07;0.82;;;2.90;99.90;;;;;;5052643;28;20023;-73
2021/11/22 04:36:41;;;;;;;9.25;0.80;;;2.90;99.90;;;;;;5051741;28;20503;-73
2021/11/22 04:39:07;;;;;;;2.80;0.77;;;3.00;99.90;;;;;;5052396;28;20020;-76
2021/11/22 04:41:33;;;;;;;5.80;0.95;;;2.90;99.90;;;;;;5053090;28;20063;-76
2021/11/22 04:44:02;;;;;;;5.90;2.67;;;2.90;99.90;;;;;;5051490;28;20028;-76
2021/11/22 04:46:27;;;;;;;8.60;1.25;;;2.90;99.90;;;;;;5053251;28;20033;-75
2021/11/22 04:48:53;;;;;;;7.38;0.98;;;2.80;99.90;;;;;;5052065;28;20487;-75
2021/11/22 04:51:19;;;;;;;7.88;1.10;;;2.70;99.90;;;;;;5052365;28;20037;-75
2021/11/22 04:53:44;;;;;;;2.60;0.95;;;2.80;99.90;;;;;;5052324;28;20116;-74
2021/11/22 04:56:10;;;;;;;20.48;2.65;;;2.80;99.90;;;;;;5051418;28;20355;-75
2021/11/22 04:58:35;;;;;;;8.63;1.70;;;2.80;99.90;;;;;;5052133;28;20021;-75
2021/11/22 05:01:01;;;;;;;6.88;0.80;;;2.80;99.90;;;;;;5051885;28;20033;-75
2021/11/22 05:03:27;;;;;;;7.30;0.90;;;2.70;99.90;;;;;;5051593;28;20448;-74
2021/11/22 05:05:52;;;;;;;5.97;0.88;;;2.80;99.90;;;;;;5051756;28;20044;-75
2021/11/22 05:08:18;;;;;;;3.58;0.98;;;2.70;99.90;;;;;;5051723;28;20523;-74
2021/11/22 05:10:45;;;;;;;1.95;0.77;;;2.70;99.90;;;;;;5051094;28;20025;-75
2021/11/22 05:13:14;;;;;;;2.17;0.80;;;2.70;99.90;;;;;;5051826;28;20029;-75
2021/11/22 05:15:40;;;;;;;3.45;1.20;;;2.70;99.90;;;;;;5052240;28;20028;-75
2021/11/22 05:18:08;;;;;;;3.97;0.85;;;2.70;99.90;;;;;;5051098;28;20124;-74
2021/11/22 05:20:34;;;;;;;7.82;1.08;;;2.60;99.90;;;;;;5052137;28;20087;-75
2021/11/22 05:23:00;;;;;;;11.70;0.90;;;2.60;99.90;;;;;;5051570;28;20027;-75
2021/11/22 05:25:26;;;;;;;3.03;0.85;;;2.60;99.90;;;;;;5051913;28;20029;-74
2021/11/22 05:27:52;;;;;;;4.57;1.05;;;2.50;99.90;;;;;;5051498;28;20039;-74
2021/11/22 05:30:21;;;;;;;1.33;0.70;;;2.50;99.90;;;;;;5051948;28;20076;-75
2021/11/22 05:32:47;;;;;;;10.47;1.23;;;2.40;99.90;;;;;;5053287;28;20040;-75
2021/11/22 05:35:13;;;;;;;2.25;0.60;;;2.40;99.90;;;;;;5055658;28;20091;-76
2021/11/22 05:37:41;;;;;;;4.15;0.63;;;2.30;99.90;;;;;;5056649;28;20120;-75
2021/11/22 05:40:07;;;;;;;4.75;0.93;;;2.30;99.90;;;;;;5054970;28;20381;-75
2021/11/22 05:42:33;;;;;;;1.52;0.52;;;2.30;99.90;;;;;;5056345;28;20381;-75
2021/11/22 05:44:58;;;;;;;6.50;0.73;;;2.20;99.90;;;;;;5056055;28;20021;-75
2021/11/22 05:47:24;;;;;;;1.52;0.85;;;2.20;99.90;;;;;;5055746;28;20033;-74
2021/11/22 05:49:50;;;;;;;1.80;0.60;;;2.10;99.90;;;;;;5056346;28;20113;-75
2021/11/22 05:52:15;;;;;;;2.50;0.98;;;2.10;99.90;;;;;;5055045;28;20033;-75
2021/11/22 05:54:52;;;;;;;1.95;0.77;;;2.00;99.90;;;;;;5056300;28;20384;-75
2021/11/22 05:57:18;;;;;;;10.98;0.75;;;2.00;99.90;;;;;;5056851;28;20481;-74
2021/11/22 05:59:44;;;;;;;2.72;0.93;;;2.10;99.90;;;;;;5055996;28;20036;-75
2021/11/22 06:02:10;;;;;;;1.60;0.70;;;2.00;99.90;;;;;;5056011;28;20100;-74
2021/11/22 06:04:36;;;;;;;2.20;0.68;;;2.10;99.90;;;;;;5055564;28;20577;-74
2021/11/22 06:07:01;;;;;;;2.97;0.82;;;2.00;99.90;;;;;;5055257;28;20043;-74
2021/11/22 06:09:27;;;;;;;1.33;0.65;;;2.00;99.90;;;;;;5056204;28;20028;-74
2021/11/22 06:11:56;;;;;;;5.82;1.13;;;1.90;99.90;;;;;;5056516;28;20032;-75
2021/11/22 06:14:21;;;;;;;2.97;1.25;;;1.90;99.90;;;;;;5055096;28;20027;-74
2021/11/22 06:16:47;;;;;;;4.68;0.95;;;1.90;99.90;;;;;;5056206;28;20029;-75
2021/11/22 06:19:13;;;;;;;11.10;1.98;;;2.00;99.90;;;;;;5055412;28;20385;-76
2021/11/22 06:21:38;;;;;;;8.63;1.10;;;2.00;99.90;;;;;;5055528;28;20025;-74
2021/11/22 06:24:05;;;;;;;4.47;1.00;;;2.00;99.90;;;;;;5055621;28;20461;-74
2021/11/22 06:26:32;;;;;;;1.05;0.80;;;2.00;99.90;;;;;;5055592;28;20166;-74
2021/11/22 06:28:58;;;;;;;6.13;0.98;;;2.10;99.90;;;;;;5055090;28;20025;-74
2021/11/22 06:31:24;;;;;;;2.72;0.82;;;2.00;99.90;;;;;;5055629;28;20037;-74
2021/11/22 06:33:49;;;;;;;2.55;0.82;;;2.00;99.90;;;;;;5054859;28;20377;-74
2021/11/22 06:36:15;;;;;;;2.63;0.90;;;2.00;99.90;;;;;;5054241;28;20017;-74
2021/11/22 06:38:40;;;;;;;4.70;1.10;;;2.00;99.90;;;;;;5055210;28;20123;-74
2021/11/22 06:41:06;;;;;;;4.10;0.98;;;2.00;99.90;;;;;;5054599;28;20481;-73
2021/11/22 06:43:32;;;;;;;4.47;0.80;;;2.00;99.90;;;;;;5044330;28;20401;-75
2021/11/22 06:45:57;;;;;;;1.70;0.82;;;2.00;99.90;;;;;;5034644;28;20040;-75
2021/11/22 06:48:23;;;;;;;2.45;0.70;;;1.90;99.90;;;;;;5034478;28;20067;-74
2021/11/22 06:50:48;;;;;;;1.98;0.90;;;1.90;99.90;;;;;;5039539;28;20033;-75
2021/11/22 06:53:14;;;;;;;4.10;1.00;;;1.90;99.90;;;;;;5038454;28;20029;-75
2021/11/22 06:55:40;;;;;;;3.65;0.80;;;1.90;99.90;;;;;;5034785;28;20309;-75
2021/11/22 06:58:05;;;;;;;3.45;1.23;;;1.90;99.90;;;;;;5033906;28;20088;-74
2021/11/22 07:00:34;;;;;;;3.38;0.90;;;1.90;99.90;;;;;;5036805;28;20029;-74
2021/11/22 07:03:00;;;;;;;4.28;0.80;;;1.80;99.90;;;;;;5036899;28;20025;-74
2021/11/22 07:05:26;;;;;;;6.38;0.93;;;1.80;99.90;;;;;;5037011;28;20136;-75
2021/11/22 07:07:52;;;;;;;1.73;0.73;;;1.90;99.90;;;;;;5053593;28;20021;-74
2021/11/22 07:10:21;;;;;;;5.07;1.25;;;1.90;99.90;;;;;;5048135;28;20060;-75
2021/11/22 07:12:46;;;;;;;4.47;0.98;;;1.80;99.90;;;;;;5053124;28;20396;-74
2021/11/22 07:15:18;;;;;;;1.63;0.70;;;1.80;99.90;;;;;;5054110;28;20021;-74
2021/11/22 07:17:44;;;;;;;6.03;0.90;;;1.70;99.90;;;;;;5052660;28;20032;-76
2021/11/22 07:20:10;;;;;;;6.15;1.10;;;1.80;99.90;;;;;;5053281;28;20025;-74
2021/11/22 07:22:35;;;;;;;6.25;1.48;;;1.70;99.90;;;;;;5050658;28;20394;-73
2021/11/22 07:25:01;;;;;;;2.92;1.27;;;1.70;99.90;;;;;;5052437;28;20032;-75
2021/11/22 07:27:26;;;;;;;2.08;1.02;;;1.70;99.90;;;;;;5052916;28;20384;-76
2021/11/22 07:29:56;;;;;;;2.47;1.00;;;1.70;99.90;;;;;;5048987;28;20025;-75
2021/11/22 07:32:22;;;;;;;5.68;1.77;;;1.80;99.90;;;;;;5052115;28;20041;-76
2021/11/22 07:34:48;;;;;;;1.10;0.82;;;1.80;99.90;;;;;;5052244;28;20017;-78
2021/11/22 07:37:13;;;;;;;3.40;0.90;;;1.80;99.90;;;;;;5053735;28;20095;-75
2021/11/22 07:39:39;;;;;;;4.18;1.35;;;1.80;99.90;;;;;;5052688;28;20373;-76
2021/11/22 07:42:07;;;;;;;1.63;0.93;;;1.80;99.90;;;;;;5052658;28;20025;-75
2021/11/22 07:44:33;;;;;;;3.20;0.85;;;1.90;99.90;;;;;;5052403;28;20029;-75
2021/11/22 07:46:59;;;;;;;1.00;0.90;;;2.90;99.90;;;;;;5051916;28;20024;-74
2021/11/22 07:49:27;;;;;;;1.95;0.80;;;1.80;99.90;;;;;;5053127;28;20079;-75
2021/11/22 07:51:53;;;;;;;4.75;1.23;;;1.90;99.90;;;;;;5051711;28;20376;-76
2021/11/22 07:54:20;;;;;;;2.10;1.40;;;1.90;99.90;;;;;;5052778;28;20100;-75
2021/11/22 07:56:46;;;;;;;2.03;0.90;;;1.90;99.90;;;;;;5052001;28;20032;-76
2021/11/22 07:59:12;;;;;;;7.03;1.20;;;2.00;99.90;;;;;;5049035;28;20028;-77
2021/11/22 08:01:40;;;;;;;5.97;1.58;;;2.10;99.90;;;;;;5053113;28;20756;-76
2021/11/22 08:04:12;;;;;;;5.63;1.45;;;2.10;99.90;;;;;;5052050;28;20067;-76
2021/11/22 08:06:40;;;;;;;4.35;0.82;;;2.20;99.90;;;;;;5051122;28;20386;-77
2021/11/22 08:09:12;;;;;;;4.35;1.02;;;2.20;99.90;;;;;;5050794;28;20418;-76
2021/11/22 08:12:02;;;;;;;3.25;0.68;;;2.20;99.90;;;;;;5052857;28;20102;-77
2021/11/22 08:14:27;;;;;;;5.40;0.90;;;2.20;99.90;;;;;;5054126;28;20085;-75
2021/11/22 08:16:53;;;;;;;2.75;0.80;;;2.30;99.90;;;;;;5056368;28;20056;-76
2021/11/22 08:19:19;;;;;;;3.00;1.40;;;2.30;99.90;;;;;;5055067;28;20025;-76
2021/11/22 08:21:45;;;;;;;4.82;1.35;;;2.40;99.90;;;;;;5056047;28;20036;-75
2021/11/22 08:24:11;;;;;;;0.93;0.82;;;2.40;99.90;;;;;;5054234;28;20478;-76
2021/11/22 08:26:36;;;;;;;6.40;1.40;;;2.50;99.90;;;;;;5054679;28;20044;-75
2021/11/22 08:29:03;;;;;;;3.38;1.15;;;2.50;99.90;;;;;;5053000;28;20029;-75
2021/11/22 08:31:29;;;;;;;10.38;2.45;;;2.60;99.90;;;;;;5053229;28;20041;-76
2021/11/22 08:33:55;;;;;;;2.10;1.23;;;2.70;99.90;;;;;;5052140;28;20028;-76
2021/11/22 08:36:21;;;;;;;3.05;1.25;;;2.70;99.90;;;;;;5052798;28;20029;-76
2021/11/22 08:38:49;;;;;;;11.50;1.20;;;2.80;99.90;;;;;;5053244;28;20101;-77
2021/11/22 08:41:15;;;;;;;7.00;2.20;;;2.90;99.90;;;;;;5052484;28;20021;-76
2021/11/22 08:43:40;;;;;;;5.50;1.00;;;2.90;99.90;;;;;;5052730;28;20102;-75
2021/11/22 08:46:06;;;;;;;2.92;1.08;;;2.90;99.90;;;;;;5053307;28;20021;-76
2021/11/22 08:48:31;;;;;;;5.38;1.00;;;3.00;99.90;;;;;;5052205;28;20025;-76
2021/11/22 08:50:57;;;;;;;2.22;1.13;;;3.00;99.90;;;;;;5053316;28;20078;-76
2021/11/22 08:53:23;;;;;;;5.07;1.00;;;3.10;99.90;;;;;;5053419;28;20074;-76
2021/11/22 08:55:48;;;;;;;5.68;1.10;;;3.20;99.90;;;;;;5052192;28;20493;-73
2021/11/22 08:58:14;;;;;;;3.70;1.33;;;3.30;99.90;;;;;;5052288;28;20108;-74
2021/11/22 09:00:41;;;;;;;2.53;1.10;;;3.30;99.90;;;;;;5052347;28;20025;-76
2021/11/22 09:03:07;;;;;;;2.20;1.02;;;3.50;99.90;;;;;;5051785;28;20036;-75
2021/11/22 09:05:32;;;;;;;6.30;1.20;;;3.60;99.90;;;;;;5052135;28;20055;-74
2021/11/22 09:07:59;;;;;;;3.00;1.63;;;3.70;99.90;;;;;;5052030;28;20021;-75
2021/11/22 09:10:25;;;;;;;5.95;1.83;;;3.70;99.90;;;;;;5051548;28;20033;-76
2021/11/22 09:12:51;;;;;;;5.13;1.27;;;3.90;99.90;;;;;;5044864;28;20116;-77
2021/11/22 09:15:20;;;;;;;11.63;1.98;;;4.00;99.90;;;;;;5048528;28;20037;-77
2021/11/22 09:17:52;;;;;;;9.18;1.90;;;4.10;99.90;;;;;;5048462;28;20029;-76
2021/11/22 09:20:18;;;;;;;4.03;1.33;;;4.10;99.90;;;;;;5042561;28;20031;-76
2021/11/22 09:22:44;;;;;;;2.60;1.00;;;4.20;99.90;;;;;;5046285;28;20025;-77
2021/11/22 09:25:10;;;;;;;5.07;1.17;;;4.20;99.90;;;;;;5049790;28;20052;-75
2021/11/22 09:27:37;;;;;;;3.38;1.30;;;4.30;99.90;;;;;;5050606;28;20380;-76
2021/11/22 09:30:05;;;;;;;2.03;0.98;;;4.30;99.90;;;;;;5048696;28;20025;-75
2021/11/22 09:32:30;;;;;;;2.00;1.40;;;4.40;99.90;;;;;;5049697;28;20033;-77
2021/11/22 09:34:56;;;;;;;1.45;0.95;;;4.50;99.90;;;;;;5050426;28;20027;-76
2021/11/22 09:37:22;;;;;;;4.55;1.33;;;4.50;99.90;;;;;;5049574;28;20447;-75
2021/11/22 09:39:47;;;;;;;4.15;1.52;;;4.60;99.90;;;;;;5050280;28;20485;-77
2021/11/22 09:42:14;;;;;;;3.40;1.33;;;4.70;99.90;;;;;;5050310;28;20055;-75
2021/11/22 09:44:39;;;;;;;3.17;1.48;;;4.70;99.90;;;;;;5051731;28;20021;-76
2021/11/22 09:47:05;;;;;;;6.70;2.10;;;4.80;99.90;;;;;;5048744;28;20033;-75
2021/11/22 09:49:31;;;;;;;8.23;1.48;;;4.90;99.90;;;;;;5049428;28;20021;-77
2021/11/22 09:51:57;;;;;;;12.13;1.98;;;5.00;99.90;;;;;;5050421;28;20108;-77
2021/11/22 09:54:22;;;;;;;4.57;1.23;;;5.10;99.90;;;;;;5052533;28;20517;-76
2021/11/22 09:56:50;;;;;;;4.00;1.23;;;5.20;99.90;;;;;;5051250;28;20171;-76
2021/11/22 09:59:17;;;;;;;4.95;1.65;;;5.30;99.90;;;;;;5051329;28;20423;-76
2021/11/22 10:01:43;;;;;;;8.30;2.47;;;5.50;99.90;;;;;;5050994;28;20044;-76
2021/11/22 10:04:18;;;;;;;2.80;1.17;;;5.50;99.90;;;;;;5050019;28;20021;-77
2021/11/22 10:06:51;;;;;;;9.75;1.27;;;5.60;99.90;;;;;;5050265;28;20174;-75
2021/11/22 10:09:31;;;;;;;6.85;2.13;;;5.70;99.90;;;;;;5048728;28;20025;-77
2021/11/22 10:12:07;;;;;;;4.35;1.27;;;5.80;99.90;;;;;;5049093;28;20029;-76
2021/11/22 10:14:40;;;;;;;4.93;1.38;;;5.80;99.90;;;;;;5048467;28;20025;-77
2021/11/22 10:17:26;;;;;;;4.68;1.10;;;6.30;99.90;;;;;;5047653;28;20144;-74
2021/11/22 10:20:24;;;;;;;1.35;1.00;;;6.10;99.90;;;;;;5048872;28;20393;-76
2021/11/22 10:23:03;;;;;;;5.38;1.20;;;6.10;99.90;;;;;;5020541;28;20032;-76
2021/11/22 10:25:33;;;;;;;5.50;1.73;;;6.20;99.90;;;;;;5054368;28;20068;-77
2021/11/22 10:28:06;;;;;;;2.07;1.20;;;6.20;99.90;;;;;;5049699;28;20021;-76
2021/11/22 10:30:35;;;;;;;7.65;1.30;;;6.30;99.90;;;;;;5053505;28;20041;-76
2021/11/22 10:33:04;;;;;;;2.58;0.73;;;6.40;99.90;;;;;;5054865;28;20037;-76
2021/11/22 10:35:33;;;;;;;5.38;1.52;;;6.40;99.90;;;;;;5053686;28;20029;-75
2021/11/22 10:38:21;;;;;;;4.53;1.40;;;6.50;99.90;;;;;;5053502;28;20078;-75
2021/11/22 10:40:54;;;;;;;1.92;1.02;;;6.50;99.90;;;;;;5051695;28;20056;-76
2021/11/22 10:43:22;;;;;;;4.43;1.27;;;6.50;99.90;;;;;;5052414;28;20028;-76
2021/11/22 10:45:52;;;;;;;3.80;1.10;;;7.20;99.90;;;;;;5053493;28;20023;-75
2021/11/22 10:48:28;;;;;;;8.65;2.58;;;6.60;99.90;;;;;;5052464;28;20066;-77
2021/11/22 10:51:12;;;;;;;8.68;1.33;;;6.70;99.90;;;;;;5051419;28;20033;-75
2021/11/22 10:53:41;;;;;;;4.70;1.02;;;6.70;99.90;;;;;;5052316;28;20392;-77
2021/11/22 10:56:13;;;;;;;7.30;0.90;;;6.80;99.90;;;;;;5052064;28;20472;-76
2021/11/22 10:58:43;;;;;;;2.33;0.70;;;6.90;99.90;;;;;;5053418;28;20048;-76
2021/11/22 11:01:26;;;;;;;4.10;0.80;;;6.90;99.90;;;;;;5053059;28;20052;-77
2021/11/22 11:04:01;;;;;;;4.15;0.95;;;6.90;99.90;;;;;;5052937;28;20029;-76
2021/11/22 11:06:54;;;;;;;2.97;0.70;;;6.90;99.90;;;;;;5050277;28;20107;-75
2021/11/22 11:09:35;;;;;;;3.45;1.00;;;6.90;99.90;;;;;;5044237;28;20026;-76
2021/11/22 11:12:20;;;;;;;5.93;1.15;;;7.00;99.90;;;;;;5051892;28;20108;-76
2021/11/22 11:14:51;;;;;;;1.20;0.80;;;7.00;99.90;;;;;;5052082;28;20469;-76
2021/11/22 11:17:32;;;;;;;5.40;1.65;;;7.10;99.90;;;;;;5052746;28;20021;-76
2021/11/22 11:20:05;;;;;;;2.50;0.80;;;7.20;99.90;;;;;;5051579;28;20104;-74
2021/11/22 11:22:31;;;;;;;3.85;2.05;;;7.20;99.90;;;;;;5052957;28;20029;-76
2021/11/22 11:24:57;;;;;;;4.75;0.85;;;7.30;99.90;;;;;;5052177;28;20107;-76
2021/11/22 11:27:24;;;;;;;4.43;1.30;;;7.30;99.90;;;;;;5053218;28;20040;-75
2021/11/22 11:29:50;;;;;;;4.65;1.20;;;7.40;99.90;;;;;;5045314;28;20026;-75
2021/11/22 11:32:16;;;;;;;1.23;1.15;;;7.40;99.90;;;;;;5051689;28;20039;-76
2021/11/22 11:34:50;;;;;;;3.33;1.05;;;7.40;99.90;;;;;;5053011;28;20025;-75
2021/11/22 11:37:37;;;;;;;5.63;0.90;;;7.50;99.90;;;;;;5039488;28;20029;-76
2021/11/22 11:40:24;;;;;;;158.65;4.80;;;7.50;99.90;;;;;;5053840;28;20033;-75
2021/11/22 11:43:18;;;;;;;4.10;0.60;;;7.60;99.90;;;;;;5056457;28;20025;-75
2021/11/22 11:45:54;;;;;;;1.20;0.50;;;7.70;99.90;;;;;;5047131;28;20032;-74
2021/11/22 11:48:53;;;;;;;2.97;0.70;;;7.70;99.90;;;;;;5050899;28;20028;-76
2021/11/22 11:51:21;;;;;;;4.32;0.95;;;7.80;99.90;;;;;;5038824;28;20032;-75
2021/11/22 11:54:05;;;;;;;3.78;1.00;;;7.80;99.90;;;;;;5039606;28;20021;-75
2021/11/22 11:56:46;;;;;;;4.65;0.73;;;7.80;99.90;;;;;;5041565;28;20049;-75
2021/11/22 11:59:23;;;;;;;5.05;0.60;;;7.80;99.90;;;;;;5040085;28;20025;-75
2021/11/22 12:02:04;;;;;;;2.80;0.60;;;7.80;99.90;;;;;;5041200;28;20126;-75
2021/11/22 12:04:45;;;;;;;2.92;0.80;;;7.90;99.90;;;;;;5039381;28;20029;-74
2021/11/22 12:07:11;;;;;;;3.13;0.60;;;8.10;99.90;;;;;;5037800;28;20038;-76
2021/11/22 12:09:41;;;;;;;3.72;0.80;;;8.10;99.90;;;;;;5047424;28;20024;-75
2021/11/22 12:12:13;;;;;;;4.77;0.97;;;8.10;99.90;;;;;;5041490;28;20072;-75
2021/11/22 12:15:03;;;;;;;7.50;0.60;;;8.10;99.90;;;;;;5040653;28;20685;-76
2021/11/22 12:17:35;;;;;;;3.90;0.40;;;8.20;99.90;;;;;;5038915;28;20062;-76
2021/11/22 12:20:25;;;;;;;3.67;0.80;;;8.20;99.90;;;;;;5037597;28;20021;-75
2021/11/22 12:23:02;;;;;;;3.63;0.77;;;8.20;99.90;;;;;;5014505;28;20033;-75
2021/11/22 12:25:38;;;;;;;1.75;0.73;;;8.20;99.90;;;;;;5050807;28;20079;-76
2021/11/22 12:28:05;;;;;;;5.20;0.75;;;8.20;99.90;;;;;;5050076;28;20027;-75
2021/11/22 12:30:32;;;;;;;4.82;0.73;;;8.20;99.90;;;;;;5045641;28;20032;-75
2021/11/22 12:33:25;;;;;;;4.90;0.75;;;8.20;99.90;;;;;;5041368;28;20090;-75
2021/11/22 12:36:01;;;;;;;1.90;0.80;;;8.30;99.90;;;;;;5048878;28;20046;-76
2021/11/22 12:38:30;;;;;;;3.05;0.70;;;8.30;99.90;;;;;;5050463;28;20393;-75
2021/11/22 12:40:58;;;;;;;3.40;1.17;;;8.40;99.90;;;;;;5049018;28;20370;-75
2021/11/22 12:43:39;;;;;;;1.67;0.60;;;8.40;99.90;;;;;;5050740;28;20028;-76
2021/11/22 12:46:05;;;;;;;;;;;8.40;99.90;;;;;;5051072;28;20025;-76
2021/11/22 12:48:56;;;;;;;1.63;0.50;;;8.40;99.90;;;;;;5053037;28;19920;-77
2021/11/22 12:51:24;;;;;;;0.90;0.50;;;8.50;99.90;;;;;;5047049;28;20057;-77
2021/11/22 12:54:04;;;;;;;5.78;0.93;;;8.50;99.90;;;;;;5052902;28;20412;-76
2021/11/22 12:56:36;;;;;;;2.47;0.82;;;8.50;99.90;;;;;;5050657;28;20040;-77
2021/11/22 12:59:15;;;;;;;1.75;0.43;;;8.60;99.90;;;;;;5053805;28;20021;-77
2021/11/22 13:01:46;;;;;;;2.20;0.82;;;8.60;99.90;;;;;;5050163;28;20047;-75
2021/11/22 13:04:50;;;;;;;1.17;0.50;;;8.60;99.90;;;;;;5051659;28;20037;-76
2021/11/22 13:07:33;;;;;;;1.30;0.70;;;8.60;99.90;;;;;;5051959;28;20076;-76